sensor_id;sensor_type;location;lat;lon;timestamp;P1;durP1;ratioP1;P2;durP2;ratioP2
22644;SDS011;11489;50.834;6.752;2022-09-29T00:02:16;5.93;;;3.45;;
22644;SDS011;11489;50.834;6.752;2022-09-29T00:04:42;4.13;;;3.20;;
22644;SDS011;11489;50.834;6.752;2022-09-29T00:07:08;7.03;;;3.78;;
22644;SDS011;11489;50.834;6.752;2022-09-29T00:09:33;4.53;;;3.70;;
22644;SDS011;11489;50.834;6.752;2022-09-29T00:11:59;6.28;;;3.28;;
22644;SDS011;11489;50.834;6.752;2022-09-29T00:14:25;5.25;;;3.60;;
22644;SDS011;11489;50.834;6.752;2022-09-29T00:16:50;4.60;;;3.58;;
22644;SDS011;11489;50.834;6.752;2022-09-29T00:19:17;4.77;;;3.47;;
22644;SDS011;11489;50.834;6.752;2022-09-29T00:21:43;5.23;;;3.40;;
22644;SDS011;11489;50.834;6.752;2022-09-29T00:24:09;4.65;;;3.38;;
22644;SDS011;11489;50.834;6.752;2022-09-29T00:26:35;4.03;;;3.47;;
22644;SDS011;11489;50.834;6.752;2022-09-29T00:29:02;4.68;;;3.42;;
22644;SDS011;11489;50.834;6.752;2022-09-29T00:31:29;4.53;;;3.70;;
22644;SDS011;11489;50.834;6.752;2022-09-29T00:33:56;4.60;;;4.00;;
22644;SDS011;11489;50.834;6.752;2022-09-29T00:36:23;6.13;;;3.77;;
22644;SDS011;11489;50.834;6.752;2022-09-29T00:38:50;5.57;;;3.70;;
22644;SDS011;11489;50.834;6.752;2022-09-29T00:41:20;5.07;;;3.73;;
22644;SDS011;11489;50.834;6.752;2022-09-29T00:48:54;4.27;;;3.27;;
22644;SDS011;11489;50.834;6.752;2022-09-29T00:51:24;5.63;;;3.60;;
22644;SDS011;11489;50.834;6.752;2022-09-29T00:53:51;6.50;;;4.00;;
22644;SDS011;11489;50.834;6.752;2022-09-29T00:56:17;5.23;;;3.97;;
22644;SDS011;11489;50.834;6.752;2022-09-29T00:58:48;5.30;;;3.90;;
22644;SDS011;11489;50.834;6.752;2022-09-29T01:01:22;5.57;;;4.07;;
22644;SDS011;11489;50.834;6.752;2022-09-29T01:03:50;5.83;;;3.90;;
22644;SDS011;11489;50.834;6.752;2022-09-29T01:06:21;4.07;;;3.57;;
22644;SDS011;11489;50.834;6.752;2022-09-29T01:09:02;6.10;;;4.00;;
22644;SDS011;11489;50.834;6.752;2022-09-29T01:11:29;4.67;;;3.70;;
22644;SDS011;11489;50.834;6.752;2022-09-29T01:13:56;5.63;;;3.73;;
22644;SDS011;11489;50.834;6.752;2022-09-29T01:16:28;7.13;;;4.20;;
22644;SDS011;11489;50.834;6.752;2022-09-29T01:18:55;5.97;;;3.87;;
22644;SDS011;11489;50.834;6.752;2022-09-29T01:21:38;7.33;;;3.90;;
22644;SDS011;11489;50.834;6.752;2022-09-29T01:24:21;6.43;;;4.00;;
22644;SDS011;11489;50.834;6.752;2022-09-29T01:33:03;4.70;;;3.43;;
22644;SDS011;11489;50.834;6.752;2022-09-29T01:35:15;5.67;;;3.60;;
22644;SDS011;11489;50.834;6.752;2022-09-29T01:40:17;4.13;;;3.33;;
22644;SDS011;11489;50.834;6.752;2022-09-29T01:43:08;4.50;;;3.63;;
22644;SDS011;11489;50.834;6.752;2022-09-29T01:45:43;4.63;;;3.50;;
22644;SDS011;11489;50.834;6.752;2022-09-29T01:48:18;4.33;;;3.17;;
22644;SDS011;11489;50.834;6.752;2022-09-29T01:50:51;8.07;;;3.90;;
22644;SDS011;11489;50.834;6.752;2022-09-29T01:53:22;7.23;;;3.97;;
22644;SDS011;11489;50.834;6.752;2022-09-29T01:55:54;6.20;;;3.70;;
22644;SDS011;11489;50.834;6.752;2022-09-29T01:58:26;4.97;;;3.60;;
22644;SDS011;11489;50.834;6.752;2022-09-29T02:00:57;5.37;;;3.63;;
22644;SDS011;11489;50.834;6.752;2022-09-29T02:03:34;6.30;;;4.17;;
22644;SDS011;11489;50.834;6.752;2022-09-29T02:06:13;4.57;;;3.90;;
22644;SDS011;11489;50.834;6.752;2022-09-29T02:08:50;4.73;;;3.43;;
22644;SDS011;11489;50.834;6.752;2022-09-29T02:11:18;5.10;;;3.67;;
22644;SDS011;11489;50.834;6.752;2022-09-29T02:13:46;4.57;;;3.40;;
22644;SDS011;11489;50.834;6.752;2022-09-29T02:16:17;5.80;;;3.43;;
22644;SDS011;11489;50.834;6.752;2022-09-29T02:18:52;5.83;;;4.00;;
22644;SDS011;11489;50.834;6.752;2022-09-29T02:21:27;5.43;;;3.93;;
22644;SDS011;11489;50.834;6.752;2022-09-29T02:23:53;7.63;;;3.80;;
22644;SDS011;11489;50.834;6.752;2022-09-29T02:26:19;5.53;;;3.90;;
22644;SDS011;11489;50.834;6.752;2022-09-29T02:28:46;4.80;;;3.60;;
22644;SDS011;11489;50.834;6.752;2022-09-29T02:31:13;5.30;;;3.87;;
22644;SDS011;11489;50.834;6.752;2022-09-29T02:33:39;4.63;;;3.73;;
22644;SDS011;11489;50.834;6.752;2022-09-29T02:45:05;5.80;;;3.23;;
22644;SDS011;11489;50.834;6.752;2022-09-29T02:56:16;5.23;;;3.77;;
22644;SDS011;11489;50.834;6.752;2022-09-29T02:58:58;8.70;;;3.90;;
22644;SDS011;11489;50.834;6.752;2022-09-29T03:01:31;6.77;;;3.87;;
22644;SDS011;11489;50.834;6.752;2022-09-29T03:03:58;5.47;;;3.97;;
22644;SDS011;11489;50.834;6.752;2022-09-29T03:06:24;8.27;;;4.43;;
22644;SDS011;11489;50.834;6.752;2022-09-29T03:08:51;8.50;;;4.40;;
22644;SDS011;11489;50.834;6.752;2022-09-29T03:11:17;6.33;;;4.33;;
22644;SDS011;11489;50.834;6.752;2022-09-29T03:13:42;6.80;;;4.47;;
22644;SDS011;11489;50.834;6.752;2022-09-29T03:16:08;7.87;;;4.43;;
22644;SDS011;11489;50.834;6.752;2022-09-29T03:18:33;6.43;;;4.10;;
22644;SDS011;11489;50.834;6.752;2022-09-29T03:20:59;5.17;;;4.37;;
22644;SDS011;11489;50.834;6.752;2022-09-29T03:23:25;7.07;;;4.60;;
22644;SDS011;11489;50.834;6.752;2022-09-29T03:25:50;7.17;;;4.50;;
22644;SDS011;11489;50.834;6.752;2022-09-29T03:28:16;6.40;;;4.30;;
22644;SDS011;11489;50.834;6.752;2022-09-29T03:30:42;5.70;;;4.13;;
22644;SDS011;11489;50.834;6.752;2022-09-29T03:33:09;8.13;;;4.73;;
22644;SDS011;11489;50.834;6.752;2022-09-29T03:35:36;6.80;;;4.50;;
22644;SDS011;11489;50.834;6.752;2022-09-29T03:38:02;7.93;;;5.00;;
22644;SDS011;11489;50.834;6.752;2022-09-29T03:40:27;5.53;;;4.13;;
22644;SDS011;11489;50.834;6.752;2022-09-29T03:42:53;6.53;;;4.67;;
22644;SDS011;11489;50.834;6.752;2022-09-29T03:45:19;10.07;;;4.27;;
22644;SDS011;11489;50.834;6.752;2022-09-29T03:47:44;7.40;;;4.87;;
22644;SDS011;11489;50.834;6.752;2022-09-29T03:50:10;5.97;;;4.70;;
22644;SDS011;11489;50.834;6.752;2022-09-29T03:52:37;7.40;;;4.57;;
22644;SDS011;11489;50.834;6.752;2022-09-29T03:55:03;8.53;;;4.80;;
22644;SDS011;11489;50.834;6.752;2022-09-29T03:57:28;10.43;;;4.87;;
22644;SDS011;11489;50.834;6.752;2022-09-29T03:59:54;6.33;;;4.30;;
22644;SDS011;11489;50.834;6.752;2022-09-29T04:02:20;6.23;;;4.47;;
22644;SDS011;11489;50.834;6.752;2022-09-29T04:04:46;6.40;;;4.33;;
22644;SDS011;11489;50.834;6.752;2022-09-29T04:07:11;6.23;;;4.60;;
22644;SDS011;11489;50.834;6.752;2022-09-29T04:09:37;7.13;;;4.83;;
22644;SDS011;11489;50.834;6.752;2022-09-29T04:12:03;9.53;;;4.90;;
22644;SDS011;11489;50.834;6.752;2022-09-29T04:14:29;8.87;;;4.93;;
22644;SDS011;11489;50.834;6.752;2022-09-29T04:16:55;6.33;;;4.87;;
22644;SDS011;11489;50.834;6.752;2022-09-29T04:19:20;8.30;;;5.07;;
22644;SDS011;11489;50.834;6.752;2022-09-29T04:21:46;11.50;;;5.63;;
22644;SDS011;11489;50.834;6.752;2022-09-29T04:24:12;8.07;;;5.60;;
22644;SDS011;11489;50.834;6.752;2022-09-29T04:26:37;12.53;;;6.43;;
22644;SDS011;11489;50.834;6.752;2022-09-29T04:29:04;11.73;;;6.50;;
22644;SDS011;11489;50.834;6.752;2022-09-29T04:31:30;10.63;;;6.13;;
22644;SDS011;11489;50.834;6.752;2022-09-29T04:33:56;9.23;;;5.97;;
22644;SDS011;11489;50.834;6.752;2022-09-29T04:36:21;10.37;;;5.90;;
22644;SDS011;11489;50.834;6.752;2022-09-29T04:38:47;11.03;;;5.50;;
22644;SDS011;11489;50.834;6.752;2022-09-29T04:41:14;9.27;;;5.87;;
22644;SDS011;11489;50.834;6.752;2022-09-29T04:43:40;9.30;;;5.50;;
22644;SDS011;11489;50.834;6.752;2022-09-29T04:46:06;9.27;;;5.40;;
22644;SDS011;11489;50.834;6.752;2022-09-29T04:48:32;12.63;;;6.00;;
22644;SDS011;11489;50.834;6.752;2022-09-29T04:50:59;10.73;;;6.07;;
22644;SDS011;11489;50.834;6.752;2022-09-29T04:53:25;11.20;;;5.70;;
22644;SDS011;11489;50.834;6.752;2022-09-29T04:55:51;9.30;;;5.63;;
22644;SDS011;11489;50.834;6.752;2022-09-29T04:58:17;8.60;;;5.90;;
22644;SDS011;11489;50.834;6.752;2022-09-29T05:00:42;12.27;;;5.80;;
22644;SDS011;11489;50.834;6.752;2022-09-29T05:03:08;8.70;;;5.87;;
22644;SDS011;11489;50.834;6.752;2022-09-29T05:05:34;8.60;;;5.60;;
22644;SDS011;11489;50.834;6.752;2022-09-29T05:08:02;9.40;;;5.70;;
22644;SDS011;11489;50.834;6.752;2022-09-29T05:10:29;8.83;;;5.40;;
22644;SDS011;11489;50.834;6.752;2022-09-29T05:12:55;8.30;;;5.73;;
22644;SDS011;11489;50.834;6.752;2022-09-29T05:15:21;8.13;;;5.47;;
22644;SDS011;11489;50.834;6.752;2022-09-29T05:17:46;7.27;;;5.47;;
22644;SDS011;11489;50.834;6.752;2022-09-29T05:20:12;10.47;;;5.17;;
22644;SDS011;11489;50.834;6.752;2022-09-29T05:22:40;9.23;;;5.17;;
22644;SDS011;11489;50.834;6.752;2022-09-29T05:25:06;6.97;;;5.10;;
22644;SDS011;11489;50.834;6.752;2022-09-29T05:27:33;8.13;;;4.83;;
22644;SDS011;11489;50.834;6.752;2022-09-29T05:30:02;8.10;;;5.13;;
22644;SDS011;11489;50.834;6.752;2022-09-29T05:32:28;13.83;;;5.50;;
22644;SDS011;11489;50.834;6.752;2022-09-29T05:34:54;7.47;;;5.23;;
22644;SDS011;11489;50.834;6.752;2022-09-29T05:37:20;8.47;;;5.43;;
22644;SDS011;11489;50.834;6.752;2022-09-29T05:39:46;10.57;;;5.80;;
22644;SDS011;11489;50.834;6.752;2022-09-29T05:42:11;9.27;;;5.43;;
22644;SDS011;11489;50.834;6.752;2022-09-29T05:44:37;8.17;;;5.47;;
22644;SDS011;11489;50.834;6.752;2022-09-29T05:47:03;7.13;;;5.30;;
22644;SDS011;11489;50.834;6.752;2022-09-29T05:49:29;7.23;;;5.37;;
22644;SDS011;11489;50.834;6.752;2022-09-29T05:51:56;9.27;;;5.93;;
22644;SDS011;11489;50.834;6.752;2022-09-29T05:54:23;11.30;;;5.83;;
22644;SDS011;11489;50.834;6.752;2022-09-29T05:56:49;9.60;;;5.20;;
22644;SDS011;11489;50.834;6.752;2022-09-29T05:59:14;8.27;;;5.33;;
22644;SDS011;11489;50.834;6.752;2022-09-29T06:01:41;7.80;;;5.60;;
22644;SDS011;11489;50.834;6.752;2022-09-29T06:04:07;9.27;;;5.60;;
22644;SDS011;11489;50.834;6.752;2022-09-29T06:06:32;7.80;;;5.70;;
22644;SDS011;11489;50.834;6.752;2022-09-29T06:09:00;9.97;;;6.30;;
22644;SDS011;11489;50.834;6.752;2022-09-29T06:11:27;9.60;;;6.20;;
22644;SDS011;11489;50.834;6.752;2022-09-29T06:13:56;9.43;;;5.80;;
22644;SDS011;11489;50.834;6.752;2022-09-29T06:16:23;7.77;;;5.53;;
22644;SDS011;11489;50.834;6.752;2022-09-29T06:18:50;12.30;;;5.73;;
22644;SDS011;11489;50.834;6.752;2022-09-29T06:21:17;9.03;;;6.20;;
22644;SDS011;11489;50.834;6.752;2022-09-29T06:23:48;9.93;;;6.53;;
22644;SDS011;11489;50.834;6.752;2022-09-29T06:26:15;13.47;;;6.63;;
22644;SDS011;11489;50.834;6.752;2022-09-29T06:28:42;10.60;;;6.67;;
22644;SDS011;11489;50.834;6.752;2022-09-29T06:31:12;11.97;;;6.37;;
22644;SDS011;11489;50.834;6.752;2022-09-29T06:33:39;11.40;;;6.17;;
22644;SDS011;11489;50.834;6.752;2022-09-29T06:36:07;9.03;;;6.53;;
22644;SDS011;11489;50.834;6.752;2022-09-29T06:38:58;9.17;;;5.93;;
22644;SDS011;11489;50.834;6.752;2022-09-29T06:41:24;17.37;;;7.17;;
22644;SDS011;11489;50.834;6.752;2022-09-29T06:43:51;12.33;;;5.97;;
22644;SDS011;11489;50.834;6.752;2022-09-29T06:46:17;12.63;;;6.20;;
22644;SDS011;11489;50.834;6.752;2022-09-29T06:48:43;9.63;;;6.67;;
22644;SDS011;11489;50.834;6.752;2022-09-29T06:51:09;10.20;;;5.80;;
22644;SDS011;11489;50.834;6.752;2022-09-29T06:53:35;12.73;;;6.63;;
22644;SDS011;11489;50.834;6.752;2022-09-29T06:56:01;9.90;;;6.40;;
22644;SDS011;11489;50.834;6.752;2022-09-29T06:58:27;9.03;;;6.73;;
22644;SDS011;11489;50.834;6.752;2022-09-29T07:00:53;11.23;;;6.70;;
22644;SDS011;11489;50.834;6.752;2022-09-29T07:03:19;12.97;;;6.57;;
22644;SDS011;11489;50.834;6.752;2022-09-29T07:05:46;12.33;;;6.33;;
22644;SDS011;11489;50.834;6.752;2022-09-29T07:08:11;11.73;;;6.23;;
22644;SDS011;11489;50.834;6.752;2022-09-29T07:10:37;10.40;;;6.13;;
22644;SDS011;11489;50.834;6.752;2022-09-29T07:13:03;10.97;;;6.00;;
22644;SDS011;11489;50.834;6.752;2022-09-29T07:15:30;11.27;;;6.60;;
22644;SDS011;11489;50.834;6.752;2022-09-29T07:17:56;14.82;;;6.32;;
22644;SDS011;11489;50.834;6.752;2022-09-29T07:20:24;10.13;;;6.67;;
22644;SDS011;11489;50.834;6.752;2022-09-29T07:22:50;9.53;;;6.77;;
22644;SDS011;11489;50.834;6.752;2022-09-29T07:25:15;10.52;;;7.35;;
22644;SDS011;11489;50.834;6.752;2022-09-29T07:27:41;14.85;;;7.32;;
22644;SDS011;11489;50.834;6.752;2022-09-29T07:30:07;13.38;;;7.50;;
22644;SDS011;11489;50.834;6.752;2022-09-29T07:32:34;10.48;;;7.55;;
22644;SDS011;11489;50.834;6.752;2022-09-29T07:35:00;12.63;;;7.07;;
22644;SDS011;11489;50.834;6.752;2022-09-29T07:37:26;12.23;;;7.82;;
22644;SDS011;11489;50.834;6.752;2022-09-29T07:39:52;11.77;;;7.55;;
22644;SDS011;11489;50.834;6.752;2022-09-29T07:42:18;12.90;;;7.55;;
22644;SDS011;11489;50.834;6.752;2022-09-29T07:44:45;12.23;;;7.82;;
22644;SDS011;11489;50.834;6.752;2022-09-29T07:47:12;13.13;;;8.43;;
22644;SDS011;11489;50.834;6.752;2022-09-29T07:49:39;13.65;;;8.25;;
22644;SDS011;11489;50.834;6.752;2022-09-29T07:52:05;15.20;;;8.77;;
22644;SDS011;11489;50.834;6.752;2022-09-29T07:54:30;13.88;;;8.68;;
22644;SDS011;11489;50.834;6.752;2022-09-29T07:56:56;14.40;;;8.82;;
22644;SDS011;11489;50.834;6.752;2022-09-29T07:59:25;10.43;;;7.97;;
22644;SDS011;11489;50.834;6.752;2022-09-29T08:01:52;15.70;;;9.18;;
22644;SDS011;11489;50.834;6.752;2022-09-29T08:04:17;11.32;;;8.23;;
22644;SDS011;11489;50.834;6.752;2022-09-29T08:06:44;13.63;;;8.95;;
22644;SDS011;11489;50.834;6.752;2022-09-29T08:09:10;13.77;;;9.25;;
22644;SDS011;11489;50.834;6.752;2022-09-29T08:11:37;16.70;;;8.82;;
22644;SDS011;11489;50.834;6.752;2022-09-29T08:14:05;14.60;;;8.98;;
22644;SDS011;11489;50.834;6.752;2022-09-29T08:16:31;14.57;;;8.85;;
22644;SDS011;11489;50.834;6.752;2022-09-29T08:18:59;11.85;;;8.48;;
22644;SDS011;11489;50.834;6.752;2022-09-29T08:21:25;13.98;;;7.82;;
22644;SDS011;11489;50.834;6.752;2022-09-29T08:23:51;12.05;;;7.85;;
22644;SDS011;11489;50.834;6.752;2022-09-29T08:26:18;13.75;;;7.78;;
22644;SDS011;11489;50.834;6.752;2022-09-29T08:28:46;12.70;;;7.85;;
22644;SDS011;11489;50.834;6.752;2022-09-29T08:31:13;10.75;;;7.72;;
22644;SDS011;11489;50.834;6.752;2022-09-29T08:33:44;16.10;;;7.90;;
22644;SDS011;11489;50.834;6.752;2022-09-29T08:36:17;10.00;;;7.72;;
22644;SDS011;11489;50.834;6.752;2022-09-29T08:38:44;13.48;;;7.60;;
22644;SDS011;11489;50.834;6.752;2022-09-29T08:46:55;12.25;;;8.07;;
22644;SDS011;11489;50.834;6.752;2022-09-29T08:49:27;11.93;;;7.50;;
22644;SDS011;11489;50.834;6.752;2022-09-29T08:52:03;11.07;;;7.90;;
22644;SDS011;11489;50.834;6.752;2022-09-29T08:54:38;9.30;;;6.88;;
22644;SDS011;11489;50.834;6.752;2022-09-29T08:57:08;11.02;;;7.53;;
22644;SDS011;11489;50.834;6.752;2022-09-29T08:59:41;11.13;;;7.47;;
22644;SDS011;11489;50.834;6.752;2022-09-29T09:02:12;12.98;;;7.40;;
22644;SDS011;11489;50.834;6.752;2022-09-29T09:05:07;10.60;;;7.13;;
22644;SDS011;11489;50.834;6.752;2022-09-29T09:16:52;7.95;;;5.45;;
22644;SDS011;11489;50.834;6.752;2022-09-29T09:24:41;6.72;;;5.28;;
22644;SDS011;11489;50.834;6.752;2022-09-29T09:27:18;6.82;;;5.50;;
22644;SDS011;11489;50.834;6.752;2022-09-29T09:29:48;6.90;;;5.22;;
22644;SDS011;11489;50.834;6.752;2022-09-29T09:32:26;10.27;;;5.10;;
22644;SDS011;11489;50.834;6.752;2022-09-29T09:35:18;6.18;;;5.40;;
22644;SDS011;11489;50.834;6.752;2022-09-29T09:37:45;5.18;;;4.68;;
22644;SDS011;11489;50.834;6.752;2022-09-29T09:42:39;6.50;;;5.38;;
22644;SDS011;11489;50.834;6.752;2022-09-29T09:45:09;7.57;;;5.55;;
22644;SDS011;11489;50.834;6.752;2022-09-29T09:47:45;7.60;;;5.53;;
22644;SDS011;11489;50.834;6.752;2022-09-29T09:50:16;7.72;;;5.50;;
22644;SDS011;11489;50.834;6.752;2022-09-29T09:55:22;7.43;;;5.60;;
22644;SDS011;11489;50.834;6.752;2022-09-29T10:00:25;7.55;;;5.50;;
22644;SDS011;11489;50.834;6.752;2022-09-29T10:03:03;9.50;;;5.25;;
22644;SDS011;11489;50.834;6.752;2022-09-29T10:05:33;7.55;;;5.68;;
22644;SDS011;11489;50.834;6.752;2022-09-29T10:08:11;7.60;;;5.65;;
22644;SDS011;11489;50.834;6.752;2022-09-29T10:10:49;6.43;;;5.50;;
22644;SDS011;11489;50.834;6.752;2022-09-29T10:13:16;8.00;;;5.72;;
22644;SDS011;11489;50.834;6.752;2022-09-29T10:23:56;7.00;;;5.20;;
22644;SDS011;11489;50.834;6.752;2022-09-29T10:28:54;6.07;;;4.72;;
22644;SDS011;11489;50.834;6.752;2022-09-29T10:31:27;7.40;;;4.15;;
22644;SDS011;11489;50.834;6.752;2022-09-29T10:36:56;7.68;;;4.47;;
22644;SDS011;11489;50.834;6.752;2022-09-29T10:39:43;8.05;;;4.93;;
22644;SDS011;11489;50.834;6.752;2022-09-29T10:42:20;7.50;;;4.80;;
22644;SDS011;11489;50.834;6.752;2022-09-29T10:45:00;7.72;;;5.45;;
22644;SDS011;11489;50.834;6.752;2022-09-29T10:47:34;7.70;;;4.82;;
22644;SDS011;11489;50.834;6.752;2022-09-29T10:50:11;5.53;;;4.53;;
22644;SDS011;11489;50.834;6.752;2022-09-29T10:52:43;7.03;;;4.47;;
22644;SDS011;11489;50.834;6.752;2022-09-29T10:55:16;6.20;;;4.63;;
22644;SDS011;11489;50.834;6.752;2022-09-29T10:57:46;5.85;;;4.07;;
22644;SDS011;11489;50.834;6.752;2022-09-29T11:03:18;4.57;;;3.33;;
22644;SDS011;11489;50.834;6.752;2022-09-29T11:06:08;6.47;;;3.65;;
22644;SDS011;11489;50.834;6.752;2022-09-29T11:11:29;4.93;;;3.75;;
22644;SDS011;11489;50.834;6.752;2022-09-29T11:14:00;5.32;;;3.88;;
22644;SDS011;11489;50.834;6.752;2022-09-29T11:16:30;6.43;;;3.75;;
22644;SDS011;11489;50.834;6.752;2022-09-29T11:19:00;6.45;;;3.72;;
22644;SDS011;11489;50.834;6.752;2022-09-29T11:29:56;3.72;;;3.08;;
22644;SDS011;11489;50.834;6.752;2022-09-29T11:32:37;4.20;;;2.45;;
22644;SDS011;11489;50.834;6.752;2022-09-29T11:35:19;4.05;;;2.38;;
22644;SDS011;11489;50.834;6.752;2022-09-29T11:43:33;7.35;;;2.70;;
22644;SDS011;11489;50.834;6.752;2022-09-29T11:46:20;2.80;;;2.30;;
22644;SDS011;11489;50.834;6.752;2022-09-29T11:57:18;3.47;;;2.42;;
22644;SDS011;11489;50.834;6.752;2022-09-29T11:59:51;3.92;;;2.63;;
22644;SDS011;11489;50.834;6.752;2022-09-29T12:02:27;4.00;;;2.40;;
22644;SDS011;11489;50.834;6.752;2022-09-29T12:05:10;2.60;;;2.35;;
22644;SDS011;11489;50.834;6.752;2022-09-29T12:10:40;4.05;;;2.65;;
22644;SDS011;11489;50.834;6.752;2022-09-29T12:15:59;4.43;;;3.13;;
22644;SDS011;11489;50.834;6.752;2022-09-29T12:18:45;3.85;;;3.05;;
22644;SDS011;11489;50.834;6.752;2022-09-29T12:21:28;4.97;;;3.10;;
22644;SDS011;11489;50.834;6.752;2022-09-29T12:24:08;6.43;;;2.90;;
22644;SDS011;11489;50.834;6.752;2022-09-29T12:26:40;3.22;;;2.88;;
22644;SDS011;11489;50.834;6.752;2022-09-29T12:29:17;5.57;;;3.25;;
22644;SDS011;11489;50.834;6.752;2022-09-29T12:31:44;4.78;;;3.08;;
22644;SDS011;11489;50.834;6.752;2022-09-29T12:34:14;9.10;;;2.95;;
22644;SDS011;11489;50.834;6.752;2022-09-29T12:36:44;3.72;;;2.67;;
22644;SDS011;11489;50.834;6.752;2022-09-29T12:42:16;5.32;;;2.97;;
22644;SDS011;11489;50.834;6.752;2022-09-29T12:45:05;4.47;;;2.60;;
22644;SDS011;11489;50.834;6.752;2022-09-29T12:47:41;3.88;;;2.55;;
22644;SDS011;11489;50.834;6.752;2022-09-29T12:50:38;4.35;;;2.50;;
22644;SDS011;11489;50.834;6.752;2022-09-29T12:53:13;2.92;;;2.20;;
22644;SDS011;11489;50.834;6.752;2022-09-29T12:55:54;3.50;;;2.22;;
22644;SDS011;11489;50.834;6.752;2022-09-29T12:58:25;4.10;;;2.13;;
22644;SDS011;11489;50.834;6.752;2022-09-29T13:01:24;3.53;;;2.10;;
22644;SDS011;11489;50.834;6.752;2022-09-29T13:07:06;2.70;;;1.75;;
22644;SDS011;11489;50.834;6.752;2022-09-29T13:09:43;4.75;;;1.70;;
22644;SDS011;11489;50.834;6.752;2022-09-29T13:21:00;3.97;;;1.50;;
22644;SDS011;11489;50.834;6.752;2022-09-29T13:23:39;2.08;;;1.50;;
22644;SDS011;11489;50.834;6.752;2022-09-29T13:29:13;2.70;;;1.50;;
22644;SDS011;11489;50.834;6.752;2022-09-29T13:31:48;4.20;;;1.50;;
22644;SDS011;11489;50.834;6.752;2022-09-29T13:34:25;1.70;;;1.30;;
22644;SDS011;11489;50.834;6.752;2022-09-29T13:37:13;2.28;;;1.13;;
22644;SDS011;11489;50.834;6.752;2022-09-29T13:39:42;2.58;;;1.10;;
22644;SDS011;11489;50.834;6.752;2022-09-29T13:45:15;1.85;;;1.20;;
22644;SDS011;11489;50.834;6.752;2022-09-29T13:48:00;2.75;;;1.40;;
22644;SDS011;11489;50.834;6.752;2022-09-29T13:50:51;1.20;;;1.10;;
22644;SDS011;11489;50.834;6.752;2022-09-29T13:58:52;3.20;;;2.10;;
22644;SDS011;11489;50.834;6.752;2022-09-29T14:01:31;3.47;;;2.22;;
22644;SDS011;11489;50.834;6.752;2022-09-29T14:07:01;7.82;;;2.50;;
22644;SDS011;11489;50.834;6.752;2022-09-29T14:09:32;4.35;;;2.40;;
22644;SDS011;11489;50.834;6.752;2022-09-29T14:12:04;3.80;;;2.47;;
22644;SDS011;11489;50.834;6.752;2022-09-29T14:14:34;4.20;;;2.65;;
22644;SDS011;11489;50.834;6.752;2022-09-29T14:17:12;3.70;;;2.40;;
22644;SDS011;11489;50.834;6.752;2022-09-29T14:20:01;4.20;;;2.10;;
22644;SDS011;11489;50.834;6.752;2022-09-29T14:22:58;3.22;;;2.30;;
22644;SDS011;11489;50.834;6.752;2022-09-29T14:25:29;7.18;;;2.50;;
22644;SDS011;11489;50.834;6.752;2022-09-29T14:35:40;5.18;;;3.25;;
22644;SDS011;11489;50.834;6.752;2022-09-29T14:38:27;6.60;;;3.15;;
22644;SDS011;11489;50.834;6.752;2022-09-29T14:40:56;5.82;;;3.08;;
22644;SDS011;11489;50.834;6.752;2022-09-29T14:43:32;3.90;;;3.00;;
22644;SDS011;11489;50.834;6.752;2022-09-29T14:52:26;6.55;;;3.80;;
22644;SDS011;11489;50.834;6.752;2022-09-29T15:03:07;4.60;;;2.30;;
22644;SDS011;11489;50.834;6.752;2022-09-29T15:05:34;8.32;;;2.65;;
22644;SDS011;11489;50.834;6.752;2022-09-29T15:08:01;5.35;;;2.40;;
22644;SDS011;11489;50.834;6.752;2022-09-29T15:10:28;6.20;;;2.80;;
22644;SDS011;11489;50.834;6.752;2022-09-29T15:16:09;4.82;;;2.60;;
22644;SDS011;11489;50.834;6.752;2022-09-29T15:18:57;3.55;;;2.35;;
22644;SDS011;11489;50.834;6.752;2022-09-29T15:21:49;3.92;;;2.33;;
22644;SDS011;11489;50.834;6.752;2022-09-29T15:24:35;3.92;;;2.40;;
22644;SDS011;11489;50.834;6.752;2022-09-29T15:27:24;5.50;;;2.40;;
22644;SDS011;11489;50.834;6.752;2022-09-29T15:29:53;3.22;;;2.17;;
22644;SDS011;11489;50.834;6.752;2022-09-29T15:32:22;3.35;;;2.30;;
22644;SDS011;11489;50.834;6.752;2022-09-29T15:34:50;5.90;;;2.55;;
22644;SDS011;11489;50.834;6.752;2022-09-29T15:37:17;5.10;;;2.42;;
22644;SDS011;11489;50.834;6.752;2022-09-29T15:39:46;3.85;;;2.33;;
22644;SDS011;11489;50.834;6.752;2022-09-29T15:42:16;4.30;;;2.30;;
22644;SDS011;11489;50.834;6.752;2022-09-29T15:44:52;3.13;;;2.55;;
22644;SDS011;11489;50.834;6.752;2022-09-29T15:47:38;3.67;;;2.40;;
22644;SDS011;11489;50.834;6.752;2022-09-29T15:53:06;4.75;;;1.80;;
22644;SDS011;11489;50.834;6.752;2022-09-29T15:55:34;3.53;;;2.30;;
22644;SDS011;11489;50.834;6.752;2022-09-29T15:58:00;2.58;;;2.22;;
22644;SDS011;11489;50.834;6.752;2022-09-29T16:00:46;4.03;;;2.40;;
22644;SDS011;11489;50.834;6.752;2022-09-29T16:09:00;1.58;;;1.05;;
22644;SDS011;11489;50.834;6.752;2022-09-29T16:11:32;1.63;;;0.80;;
22644;SDS011;11489;50.834;6.752;2022-09-29T16:14:06;4.07;;;0.90;;
22644;SDS011;11489;50.834;6.752;2022-09-29T16:16:40;2.30;;;0.70;;
22644;SDS011;11489;50.834;6.752;2022-09-29T16:19:10;1.05;;;0.80;;
22644;SDS011;11489;50.834;6.752;2022-09-29T16:21:39;3.03;;;1.05;;
22644;SDS011;11489;50.834;6.752;2022-09-29T16:26:49;2.33;;;1.10;;
22644;SDS011;11489;50.834;6.752;2022-09-29T16:31:49;5.05;;;0.82;;
22644;SDS011;11489;50.834;6.752;2022-09-29T16:36:46;2.40;;;1.10;;
22644;SDS011;11489;50.834;6.752;2022-09-29T16:39:14;2.58;;;1.20;;
22644;SDS011;11489;50.834;6.752;2022-09-29T16:41:41;0.98;;;0.80;;
22644;SDS011;11489;50.834;6.752;2022-09-29T16:44:15;3.95;;;0.75;;
22644;SDS011;11489;50.834;6.752;2022-09-29T16:46:47;1.50;;;0.80;;
22644;SDS011;11489;50.834;6.752;2022-09-29T16:49:18;0.82;;;0.70;;
22644;SDS011;11489;50.834;6.752;2022-09-29T16:51:46;1.55;;;0.60;;
22644;SDS011;11489;50.834;6.752;2022-09-29T16:54:15;1.58;;;0.75;;
22644;SDS011;11489;50.834;6.752;2022-09-29T16:56:44;0.60;;;0.60;;
22644;SDS011;11489;50.834;6.752;2022-09-29T16:59:13;1.38;;;0.60;;
22644;SDS011;11489;50.834;6.752;2022-09-29T17:01:41;0.57;;;0.55;;
22644;SDS011;11489;50.834;6.752;2022-09-29T17:04:08;1.27;;;0.80;;
22644;SDS011;11489;50.834;6.752;2022-09-29T17:06:34;1.80;;;0.70;;
22644;SDS011;11489;50.834;6.752;2022-09-29T17:09:02;1.08;;;0.60;;
22644;SDS011;11489;50.834;6.752;2022-09-29T17:11:29;1.30;;;0.63;;
22644;SDS011;11489;50.834;6.752;2022-09-29T17:13:55;1.92;;;0.70;;
22644;SDS011;11489;50.834;6.752;2022-09-29T17:16:21;2.63;;;1.27;;
22644;SDS011;11489;50.834;6.752;2022-09-29T17:18:49;1.80;;;1.30;;
22644;SDS011;11489;50.834;6.752;2022-09-29T17:21:16;2.85;;;1.30;;
22644;SDS011;11489;50.834;6.752;2022-09-29T17:23:42;1.80;;;1.38;;
22644;SDS011;11489;50.834;6.752;2022-09-29T17:26:32;3.08;;;1.70;;
22644;SDS011;11489;50.834;6.752;2022-09-29T17:29:26;3.33;;;1.80;;
22644;SDS011;11489;50.834;6.752;2022-09-29T17:31:52;3.00;;;1.58;;
22644;SDS011;11489;50.834;6.752;2022-09-29T17:34:18;4.50;;;1.70;;
22644;SDS011;11489;50.834;6.752;2022-09-29T17:36:53;2.22;;;1.48;;
22644;SDS011;11489;50.834;6.752;2022-09-29T17:39:24;3.15;;;1.60;;
22644;SDS011;11489;50.834;6.752;2022-09-29T17:41:50;3.47;;;1.50;;
22644;SDS011;11489;50.834;6.752;2022-09-29T17:44:16;2.50;;;1.50;;
22644;SDS011;11489;50.834;6.752;2022-09-29T17:46:43;2.53;;;1.50;;
22644;SDS011;11489;50.834;6.752;2022-09-29T17:49:12;2.03;;;1.40;;
22644;SDS011;11489;50.834;6.752;2022-09-29T17:51:40;3.47;;;1.42;;
22644;SDS011;11489;50.834;6.752;2022-09-29T17:54:06;1.80;;;1.42;;
22644;SDS011;11489;50.834;6.752;2022-09-29T17:59:44;2.40;;;1.55;;
22644;SDS011;11489;50.834;6.752;2022-09-29T18:02:11;3.28;;;1.42;;
22644;SDS011;11489;50.834;6.752;2022-09-29T18:04:40;2.05;;;1.52;;
22644;SDS011;11489;50.834;6.752;2022-09-29T18:07:09;2.47;;;1.73;;